< Typhoon 196812 1968 Season Typhoon 196814 >
Typhoon 196813 (AGNES)
General InformationTrack Information on Google Maps || Disaster Info.ResourceGoogle EarthGE AnimationAtom FeedGeoJSON
Detalied Best Track (Time Zone = UTC)
Year Month Day Hour Lat. Long. Pressure (hPa) Wind (kt) Class Image Chart
1968 8 27 06 11.0 173.0 1008 0 2 -- Chart
1968 8 27 12 11.6 172.6 1008 0 2 -- Chart
1968 8 27 18 12.4 172.2 1006 0 2 -- Chart
1968 8 28 00 13.3 172.0 1006 0 2 -- Chart
1968 8 28 06 14.0 171.8 1004 0 2 -- Chart
1968 8 28 12 14.5 171.5 1004 0 2 -- Chart
1968 8 28 18 15.2 170.8 1002 0 2 -- Chart
1968 8 29 00 15.7 170.0 1002 0 2 -- Chart
1968 8 29 06 16.1 169.1 998 0 2 -- Chart
1968 8 29 12 17.0 168.2 998 0 2 -- Chart
1968 8 29 18 17.3 166.9 996 0 2 -- Chart
1968 8 30 00 17.3 165.6 990 0 9 -- Chart
1968 8 30 06 17.4 164.3 985 0 9 -- Chart
1968 8 30 12 17.4 162.5 980 0 9 -- Chart
1968 8 30 18 17.1 160.7 975 0 9 -- Chart
1968 8 31 00 16.7 159.2 970 0 9 -- Chart
1968 8 31 06 16.5 157.3 965 0 9 -- Chart
1968 8 31 12 16.1 155.6 955 0 9 -- Chart
1968 8 31 18 16.2 154.0 950 0 9 -- Chart
1968 9 1 00 16.2 152.3 955 0 9 -- Chart
1968 9 1 06 16.0 150.6 965 0 9 -- Chart
1968 9 1 12 16.3 149.1 965 0 9 -- Chart
1968 9 1 18 16.4 148.0 965 0 9 -- Chart
1968 9 2 00 16.4 146.6 965 0 9 -- Chart
1968 9 2 06 16.6 145.4 960 0 9 -- Chart
1968 9 2 12 16.8 144.0 960 0 9 -- Chart
1968 9 2 18 17.1 142.8 955 0 9 -- Chart
1968 9 3 00 17.5 141.7 955 0 9 -- Chart
1968 9 3 06 17.8 140.7 948 0 9 -- Chart
1968 9 3 12 18.2 139.8 925 0 9 -- Chart
1968 9 3 18 18.5 139.2 910 0 9 -- Chart
1968 9 4 00 18.7 138.4 900 0 9 -- Chart
1968 9 4 06 19.2 137.6 910 0 9 -- Chart
1968 9 4 12 19.4 136.9 915 0 9 -- Chart
1968 9 4 18 19.3 136.7 920 0 9 -- Chart
1968 9 5 00 19.2 136.6 930 0 9 -- Chart
1968 9 5 06 19.1 136.7 935 0 9 -- Chart
1968 9 5 12 19.1 136.9 935 0 9 -- Chart
1968 9 5 18 19.5 137.2 935 0 9 -- Chart
1968 9 6 00 19.5 136.9 940 0 9 -- Chart
1968 9 6 06 19.8 137.2 945 0 9 -- Chart
1968 9 6 12 20.3 136.8 950 0 9 -- Chart
1968 9 6 18 20.2 136.6 955 0 9 -- Chart
1968 9 7 00 20.2 136.7 960 0 9 -- Chart
1968 9 7 06 21.0 137.0 965 0 9 -- Chart
1968 9 7 12 21.8 137.4 971 0 9 -- Chart
1968 9 7 18 22.8 137.4 970 0 9 -- Chart
1968 9 8 00 23.5 137.2 975 0 9 -- Chart
1968 9 8 06 24.3 137.6 980 0 9 -- Chart
1968 9 8 12 25.1 137.3 980 0 9 -- Chart
1968 9 8 18 26.4 138.6 980 0 9 -- Chart
1968 9 9 00 27.9 140.7 975 0 9 -- Chart
1968 9 9 06 29.6 143.0 975 0 9 -- Chart
1968 9 9 12 31.6 145.9 980 0 9 -- Chart
1968 9 9 18 33.0 149.0 980 0 9 -- Chart
1968 9 10 00 36.0 154.4 990 0 9 -- Chart
1968 9 10 06 40.4 158.5 982 0 6 -- Chart
1968 9 10 12 43.0 161.0 982 0 6 -- Chart
1968 9 10 18 45.4 163.4 984 0 6 -- Chart
1968 9 11 00 48.0 166.1 986 0 6 -- Chart
1968 9 11 06 50.0 170.0 986 0 6 -- Chart
1968 9 11 12 50.0 176.0 990 0 6 -- Chart
1968 9 11 18 50.0 183.0 990 0 6 -- Chart
Japan Meteorological Agency Best Track Data | Correction Date : 1991-07-16
< Typhoon 196812 1968 Season Typhoon 196814 >

Help